createdAt,value
2018-05-16T00:00:34.994Z,67.76
2018-05-16T00:05:36.342Z,67.75
2018-05-16T00:10:37.655Z,68.47
2018-05-16T00:15:38.962Z,68.97
2018-05-16T00:20:40.278Z,68.66
2018-05-16T00:25:42.323Z,68.84
2018-05-16T00:30:43.635Z,68.81
2018-05-16T00:35:44.945Z,68.38
2018-05-16T00:40:46.266Z,68.43
2018-05-16T00:45:47.569Z,67.35
2018-05-16T00:51:07.459Z,67.02
2018-05-16T00:56:08.775Z,68.68
2018-05-16T01:01:10.097Z,69.35
2018-05-16T01:06:11.453Z,69.00
2018-05-16T01:11:12.735Z,66.88
2018-05-16T01:16:14.814Z,66.44
2018-05-16T01:21:16.142Z,67.57
2018-05-16T01:26:17.466Z,68.07
2018-05-16T01:31:18.773Z,66.91
2018-05-16T01:36:20.083Z,66.50
2018-05-16T01:41:22.127Z,67.66
2018-05-16T01:46:23.422Z,68.23
2018-05-16T01:51:24.757Z,68.34
2018-05-16T01:56:26.066Z,69.79
2018-05-16T02:01:28.099Z,70.17
2018-05-16T02:06:29.422Z,70.36
2018-05-16T02:11:30.725Z,72.16
2018-05-16T02:16:32.059Z,71.76
2018-05-16T02:21:33.371Z,72.36
2018-05-16T02:26:34.678Z,71.77
2018-05-16T02:31:35.982Z,71.83
2018-05-16T02:36:37.307Z,71.62
2018-05-16T02:41:39.352Z,69.37
2018-05-16T02:46:40.647Z,68.87
2018-05-16T02:51:41.958Z,68.67
2018-05-16T02:56:43.247Z,68.41
2018-05-16T03:01:44.557Z,68.28
2018-05-16T03:06:46.627Z,67.60
2018-05-16T03:11:47.938Z,67.37
2018-05-16T03:16:49.973Z,68.27
2018-05-16T03:21:51.278Z,68.15
2018-05-16T03:26:52.589Z,67.49
2018-05-16T03:31:53.882Z,67.84
2018-05-16T03:36:55.191Z,68.25
2018-05-16T03:41:56.498Z,68.53
2018-05-16T03:46:58.542Z,68.16
2018-05-16T03:51:59.900Z,69.25
2018-05-16T03:57:01.567Z,70.27
2018-05-16T04:02:21.692Z,70.31
2018-05-16T04:07:23.206Z,70.21
2018-05-16T04:12:24.641Z,70.04
2018-05-16T04:17:27.037Z,69.85
2018-05-16T04:22:28.380Z,67.92
2018-05-16T04:27:29.665Z,68.66
2018-05-16T04:32:31.826Z,69.37
2018-05-16T04:37:33.186Z,67.94
2018-05-16T04:42:34.545Z,66.75
2018-05-16T04:47:35.867Z,66.81
2018-05-16T04:52:37.169Z,66.84
2018-05-16T04:57:39.217Z,66.57
2018-05-16T05:02:40.540Z,65.92
2018-05-16T05:07:41.866Z,65.39
2018-05-16T05:12:43.168Z,64.34
2018-05-16T05:17:44.466Z,63.56
2018-05-16T05:22:45.771Z,62.88
2018-05-16T05:27:47.089Z,62.86
2018-05-16T05:32:48.415Z,63.26
2018-05-16T05:37:49.710Z,63.84
2018-05-16T05:42:51.030Z,64.42
2018-05-16T05:47:52.329Z,64.25
2018-05-16T05:52:53.631Z,64.91
2018-05-16T05:57:54.937Z,64.51
2018-05-16T06:02:57.004Z,65.32
2018-05-16T06:07:58.323Z,65.94
2018-05-16T06:12:59.630Z,65.55
2018-05-16T06:18:01.682Z,65.37
2018-05-16T06:23:02.978Z,66.17
2018-05-16T06:28:04.310Z,66.98
2018-05-16T06:33:06.358Z,64.95
2018-05-16T06:38:07.680Z,64.70
2018-05-16T06:43:08.986Z,63.55
2018-05-16T06:48:10.313Z,64.67
2018-05-16T06:53:11.622Z,64.17
2018-05-16T06:58:12.941Z,64.02
2018-05-16T07:03:14.258Z,63.14
2018-05-16T07:08:16.294Z,63.08
2018-05-16T07:13:17.605Z,62.56
2018-05-16T07:18:18.906Z,62.16
2018-05-16T07:23:20.196Z,61.08
2018-05-16T07:28:21.489Z,60.18
2018-05-16T07:33:22.785Z,58.19
2018-05-16T07:38:24.089Z,57.98
2018-05-16T07:43:26.150Z,57.34
2018-05-16T07:48:27.461Z,56.42
2018-05-16T07:53:28.788Z,55.23
2018-05-16T07:58:30.111Z,54.00
2018-05-16T08:03:31.441Z,53.42
2018-05-16T08:08:33.492Z,53.19
2018-05-16T08:13:34.793Z,54.27
2018-05-16T08:18:36.090Z,55.02
2018-05-16T08:23:37.402Z,55.03
2018-05-16T08:28:38.714Z,53.99
2018-05-16T08:33:40.771Z,51.66
2018-05-16T08:38:42.079Z,51.46
2018-05-16T08:43:43.398Z,51.13
2018-05-16T08:48:45.469Z,50.52
2018-05-16T08:53:46.782Z,50.26
2018-05-16T08:58:48.831Z,49.10
2018-05-16T09:03:50.146Z,49.18
2018-05-16T09:08:51.442Z,47.95
2018-05-16T09:13:52.773Z,47.78
2018-05-16T09:18:54.069Z,47.05
2018-05-16T09:23:55.385Z,47.67
2018-05-16T09:28:56.693Z,48.96
2018-05-16T09:33:57.994Z,50.60
2018-05-16T09:38:59.289Z,55.85
2018-05-16T09:44:00.581Z,56.69
2018-05-16T09:49:01.887Z,54.45
2018-05-16T09:54:03.953Z,53.32
2018-05-16T09:59:05.286Z,52.22
2018-05-16T10:04:07.377Z,51.17
2018-05-16T10:09:09.413Z,51.32
2018-05-16T10:14:10.734Z,51.18
2018-05-16T10:19:12.052Z,53.08
2018-05-16T10:24:13.355Z,53.34
2018-05-16T10:29:15.399Z,54.25
2018-05-16T10:34:16.714Z,54.05
2018-05-16T10:39:18.009Z,53.73
2018-05-16T10:44:19.316Z,53.52
2018-05-16T10:49:21.348Z,52.52
2018-05-16T10:54:22.641Z,51.33
2018-05-16T10:59:23.945Z,49.88
2018-05-16T11:04:25.296Z,49.19
2018-05-16T11:09:27.325Z,48.53
2018-05-16T11:14:28.614Z,49.21
2018-05-16T11:19:29.913Z,47.90
2018-05-16T11:24:31.221Z,46.93
2018-05-16T11:29:32.526Z,46.64
2018-05-16T11:34:33.840Z,47.31
2018-05-16T11:39:35.145Z,48.46
2018-05-16T11:44:37.212Z,49.60
2018-05-16T11:49:38.518Z,51.04
2018-05-16T11:54:39.843Z,50.50
2018-05-16T11:59:41.147Z,49.99
2018-05-16T12:04:42.545Z,49.31
2018-05-16T12:09:50.845Z,48.65
2018-05-16T12:14:52.919Z,48.17
2018-05-16T12:19:54.228Z,47.73
2018-05-16T12:24:55.533Z,47.70
2018-05-16T12:29:57.582Z,47.14
2018-05-16T12:34:58.890Z,46.73
2018-05-16T12:40:00.221Z,46.51
2018-05-16T12:45:02.315Z,45.37
2018-05-16T12:50:03.651Z,44.17
2018-05-16T12:55:04.958Z,44.00
2018-05-16T13:00:06.304Z,44.78
2018-05-16T13:05:08.373Z,44.92
2018-05-16T13:10:09.681Z,44.51
2018-05-16T13:15:10.994Z,43.39
2018-05-16T13:20:12.285Z,43.28
2018-05-16T13:25:14.337Z,43.38
2018-05-16T13:30:15.650Z,44.33
2018-05-16T13:35:16.979Z,44.23
2018-05-16T13:40:18.291Z,44.61
2018-05-16T13:45:19.646Z,44.31
2018-05-16T13:50:21.697Z,43.34
2018-05-16T13:55:23.023Z,43.58
2018-05-16T14:00:24.319Z,42.68
2018-05-16T14:05:26.399Z,42.64
2018-05-16T14:10:27.711Z,42.45
2018-05-16T14:15:29.777Z,41.11
2018-05-16T14:20:31.217Z,38.94
2018-05-16T14:25:33.304Z,39.20
2018-05-16T14:30:34.626Z,38.66
2018-05-16T14:35:35.950Z,38.11
2018-05-16T14:40:37.278Z,37.97
2018-05-16T14:45:39.319Z,37.97
2018-05-16T14:50:40.641Z,38.18
2018-05-16T14:55:42.088Z,39.34
2018-05-16T15:00:44.965Z,41.09
2018-05-16T15:05:46.327Z,44.03
2018-05-16T15:10:47.663Z,53.38
2018-05-16T15:15:49.090Z,58.47
2018-05-16T15:20:50.407Z,61.96
2018-05-16T15:25:51.718Z,64.95
2018-05-16T15:30:53.034Z,64.95
2018-05-16T15:35:54.377Z,65.99
2018-05-16T15:40:55.685Z,67.62
2018-05-16T15:45:57.019Z,67.45
2018-05-16T15:50:59.080Z,70.65
2018-05-16T15:56:01.302Z,70.45
2018-05-16T16:01:02.655Z,70.02
2018-05-16T16:06:04.005Z,69.66
2018-05-16T16:11:07.357Z,69.18
2018-05-16T16:16:08.673Z,70.45
2018-05-16T16:21:10.017Z,71.17
2018-05-16T16:26:11.340Z,71.65
2018-05-16T16:31:12.754Z,73.03
2018-05-16T16:36:13.997Z,73.06
2018-05-16T16:41:17.026Z,70.82
2018-05-16T16:46:18.404Z,71.15
2018-05-16T16:51:20.469Z,68.97
2018-05-16T16:56:21.851Z,68.48
2018-05-16T17:01:23.865Z,66.86
2018-05-16T17:06:25.224Z,67.10
2018-05-16T17:11:26.734Z,66.88
2018-05-16T17:16:28.146Z,67.53
2018-05-16T17:21:29.542Z,73.28
2018-05-16T17:26:31.087Z,75.02
2018-05-16T17:31:32.709Z,74.75
2018-05-16T17:36:34.419Z,76.67
2018-05-16T17:41:37.442Z,79.50
2018-05-16T17:46:46.949Z,79.44
2018-05-16T17:51:48.332Z,79.11
2018-05-16T17:56:50.570Z,77.89
2018-05-16T18:01:53.504Z,77.06
2018-05-16T18:06:55.776Z,76.38
2018-05-16T18:11:58.376Z,75.45
2018-05-16T18:17:18.862Z,75.58
2018-05-16T18:22:20.520Z,76.19
2018-05-16T18:27:22.674Z,76.18
2018-05-16T18:32:26.036Z,76.43
2018-05-16T18:37:27.699Z,75.79
2018-05-16T18:42:30.824Z,76.36
2018-05-16T18:47:32.985Z,76.15
2018-05-16T18:52:34.445Z,74.46
2018-05-16T18:57:37.127Z,74.47
2018-05-16T19:02:38.450Z,74.03
2018-05-16T19:07:40.815Z,73.96
2018-05-16T19:12:42.169Z,74.49
2018-05-16T19:17:44.219Z,74.81
2018-05-16T19:22:45.658Z,74.77
2018-05-16T19:27:47.822Z,74.52
2018-05-16T19:32:50.021Z,74.32
2018-05-16T19:37:51.399Z,74.57
2018-05-16T19:42:52.727Z,74.74
2018-05-16T19:47:54.526Z,75.04
2018-05-16T19:52:55.842Z,75.05
2018-05-16T19:57:57.913Z,75.13
2018-05-16T20:02:59.282Z,75.07
2018-05-16T20:08:00.652Z,74.62
2018-05-16T20:13:01.989Z,74.70
2018-05-16T20:18:03.349Z,74.73
2018-05-16T20:23:04.686Z,74.42
2018-05-16T20:28:07.105Z,74.34
2018-05-16T20:33:10.343Z,73.92
2018-05-16T20:38:11.898Z,73.87
2018-05-16T20:43:13.207Z,73.88
2018-05-16T20:48:20.835Z,74.49
2018-05-16T20:53:22.213Z,74.16
2018-05-16T20:58:23.555Z,74.34
2018-05-16T21:03:25.618Z,74.28
2018-05-16T21:08:26.970Z,74.40
2018-05-16T21:13:28.310Z,74.19
2018-05-16T21:18:29.614Z,74.44
2018-05-16T21:23:31.681Z,74.70
2018-05-16T21:28:33.081Z,74.75
2018-05-16T21:33:35.092Z,74.85
2018-05-16T21:38:36.404Z,74.68
2018-05-16T21:43:37.733Z,74.87
2018-05-16T21:48:39.056Z,74.92
2018-05-16T21:53:40.375Z,74.79
2018-05-16T21:58:41.699Z,75.39
2018-05-16T22:03:43.035Z,75.41
2018-05-16T22:08:44.373Z,75.35
2018-05-16T22:13:45.695Z,75.37
2018-05-16T22:18:47.005Z,74.98
2018-05-16T22:23:48.306Z,74.82
2018-05-16T22:28:49.644Z,74.57
2018-05-16T22:33:57.139Z,74.33
2018-05-16T22:39:05.329Z,74.60
2018-05-16T22:44:20.464Z,74.29
2018-05-16T22:49:21.779Z,74.14
2018-05-16T22:54:23.094Z,74.09
2018-05-16T22:59:25.159Z,73.76
2018-05-16T23:04:26.481Z,73.97
2018-05-16T23:09:28.521Z,73.84
2018-05-16T23:14:29.864Z,73.73
2018-05-16T23:19:31.205Z,73.43
2018-05-16T23:24:32.519Z,73.77
2018-05-16T23:29:33.851Z,73.03
2018-05-16T23:34:36.047Z,72.75
2018-05-16T23:39:37.826Z,73.06
2018-05-16T23:44:39.373Z,72.21
2018-05-16T23:49:40.687Z,72.39
2018-05-16T23:54:42.347Z,72.42
2018-05-16T23:59:44.036Z,72.54
